Terminal Aerodrome Forecast
Issued by NWS Paducah, KY

Home | Current Version | Previous Version | Text Only | Print | Product List | Glossary On
Versions: 1 2 3 4 5 6 7 8 9 10 11 12 13 14 15 16 17 18 19 20 21 22 23 24 25
000
FTUS43 KPAH 042028 AAA
TAFEVV
TAF AMD
KEVV 042028Z 0420/0518 34011G18KT 2SM -SN BR OVC025
      TEMPO 0420/0422 1/4SM +SN SCT005 OVC014
     FM042200 35012G20KT 3SM -SN BR OVC015
      TEMPO 0422/0502 1SM -SN BKN010
     FM051000 01009KT 5SM BR SCT005 OVC025
     FM051400 35008KT P6SM OVC050=

USA.gov is the U.S. government's official web portal to all federal, state and local government web resources and services.